Terminal Aerodrome Forecast
Issued by NWS

Home | Current Version | Previous Version | Text Only | Print | Product List | Glossary On
Versions: 1 2 3 4 5 6 7 8 9 10 11 12 13 14 15 16
533
FTUS42 KGSP 031136
TAFAND
TAF
KAND 031136Z 0312/0412 03003KT P6SM BKN250
     FM031700 11003KT P6SM SCT130 BKN250
     FM032100 17003KT P6SM BKN110 OVC250
     FM040700 VRB02KT P6SM OVC040 PROB30 0407/0411 2SM -RA OVC025
     FM041100 07004KT 4SM -RA BR OVC035=

USA.gov is the U.S. government's official web portal to all federal, state and local government web resources and services.